Time;durP1;ratioP1;P1;durP2;ratioP2;P2;SDS_P1;SDS_P2;PMS_P1;PMS_P2;Temp;Humidity;BMP_temperature;BMP_pressure;BME280_temperature;BME280_humidity;BME280_pressure;Samples;Min_cycle;Max_cycle;Signal;HPM_P1;HPM_P2
2021/09/07 00:00:45;;;;;;;7.30;3.75;;;23.00;96.50;;;;;;5055442;28;20025;-81
2021/09/07 00:03:11;;;;;;;7.97;3.70;;;22.40;97.40;;;;;;5055653;28;20075;-79
2021/09/07 00:05:36;;;;;;;8.75;4.03;;;22.30;98.00;;;;;;5054382;28;20053;-79
2021/09/07 00:08:02;;;;;;;8.18;4.25;;;22.20;98.20;;;;;;5055480;28;20099;-80
2021/09/07 00:10:29;;;;;;;8.55;3.80;;;22.20;98.30;;;;;;5055323;28;20032;-80
2021/09/07 00:12:55;;;;;;;8.25;4.00;;;22.00;98.50;;;;;;5055270;28;20059;-79
2021/09/07 00:15:21;;;;;;;7.60;3.97;;;21.80;98.90;;;;;;5055374;28;20103;-79
2021/09/07 00:17:48;;;;;;;8.20;4.05;;;21.70;99.40;;;;;;5055256;28;20024;-79
2021/09/07 00:20:14;;;;;;;10.77;4.43;;;21.70;99.90;;;;;;5053804;28;20166;-80
2021/09/07 00:22:42;;;;;;;9.77;4.10;;;21.70;99.80;;;;;;5055101;28;20097;-80
2021/09/07 00:25:09;;;;;;;7.20;3.78;;;22.00;99.50;;;;;;5053682;28;20119;-80
2021/09/07 00:27:35;;;;;;;8.70;4.45;;;22.20;99.00;;;;;;5054961;28;20543;-80
2021/09/07 00:30:01;;;;;;;9.15;4.18;;;22.30;98.80;;;;;;5054931;28;20048;-80
2021/09/07 00:32:27;;;;;;;10.52;4.53;;;22.30;98.30;;;;;;5055054;28;20025;-79
2021/09/07 00:34:52;;;;;;;7.75;3.88;;;22.20;98.30;;;;;;5054855;28;20028;-80
2021/09/07 00:37:18;;;;;;;6.68;3.20;;;22.30;98.20;;;;;;5055171;28;20029;-79
2021/09/07 00:39:44;;;;;;;7.15;3.50;;;22.20;97.80;;;;;;5055059;28;20035;-80
2021/09/07 00:42:10;;;;;;;7.85;3.50;;;22.10;97.40;;;;;;5054907;28;20029;-80
2021/09/07 00:44:35;;;;;;;7.53;3.60;;;21.90;97.60;;;;;;5053403;28;20021;-80
2021/09/07 00:47:05;;;;;;;10.40;3.88;;;21.70;98.10;;;;;;5054685;28;20017;-80
2021/09/07 00:49:31;;;;;;;7.45;3.67;;;21.50;98.90;;;;;;5054526;28;20385;-80
2021/09/07 00:51:58;;;;;;;8.95;4.18;;;21.40;99.40;;;;;;5054475;28;20413;-80
2021/09/07 00:54:28;;;;;;;7.43;3.58;;;21.30;99.30;;;;;;5054452;28;20024;-79
2021/09/07 00:56:55;;;;;;;6.55;3.45;;;21.10;99.60;;;;;;5054448;28;20047;-81
2021/09/07 00:59:22;;;;;;;7.55;3.75;;;20.90;99.90;;;;;;5054326;28;20025;-80
2021/09/07 01:01:48;;;;;;;8.77;4.28;;;21.10;99.90;;;;;;5053893;28;20056;-79
2021/09/07 01:04:14;;;;;;;9.15;4.20;;;21.40;99.90;;;;;;5052554;28;20565;-80
2021/09/07 01:06:40;;;;;;;7.72;4.05;;;21.60;99.50;;;;;;5052933;28;20032;-80
2021/09/07 01:09:07;;;;;;;8.05;3.90;;;21.60;99.10;;;;;;5054177;28;20068;-79
2021/09/07 01:11:34;;;;;;;7.72;3.60;;;21.60;99.40;;;;;;5054095;28;20047;-80
2021/09/07 01:14:00;;;;;;;7.93;3.35;;;21.60;98.90;;;;;;5054112;28;20071;-80
2021/09/07 01:16:28;;;;;;;7.35;3.75;;;21.60;98.40;;;;;;5052269;28;20513;-79
2021/09/07 01:18:55;;;;;;;9.60;4.07;;;21.30;98.60;;;;;;5053619;28;20021;-80
2021/09/07 01:21:21;;;;;;;8.98;4.40;;;20.80;99.50;;;;;;5052642;28;20515;-80
2021/09/07 01:23:48;;;;;;;7.55;3.85;;;20.50;99.90;;;;;;5053924;28;20025;-79
2021/09/07 01:26:19;;;;;;;7.30;4.03;;;20.40;99.90;;;;;;5053776;28;20026;-80
2021/09/07 01:28:46;;;;;;;10.50;4.22;;;20.80;99.90;;;;;;5054064;28;20020;-80
2021/09/07 01:31:12;;;;;;;7.47;3.58;;;21.00;99.90;;;;;;5052399;28;20463;-80
2021/09/07 01:33:39;;;;;;;7.13;3.78;;;21.10;99.90;;;;;;5053759;28;20016;-80
2021/09/07 01:36:06;;;;;;;7.85;3.80;;;21.20;99.40;;;;;;5053670;28;20055;-79
2021/09/07 01:38:33;;;;;;;8.43;3.70;;;21.20;99.20;;;;;;5053888;28;20101;-79
2021/09/07 01:41:00;;;;;;;6.80;3.50;;;20.90;99.40;;;;;;5053600;28;20393;-80
2021/09/07 01:43:26;;;;;;;6.97;3.50;;;21.00;99.20;;;;;;5053604;28;20175;-80
2021/09/07 01:45:53;;;;;;;7.55;3.70;;;20.90;99.10;;;;;;5053486;28;20054;-79
2021/09/07 01:48:20;;;;;;;8.77;3.67;;;20.50;99.90;;;;;;5053368;28;20033;-80
2021/09/07 01:50:47;;;;;;;7.10;3.60;;;20.40;99.90;;;;;;5053690;28;20032;-80
2021/09/07 01:53:14;;;;;;;8.50;4.05;;;20.40;99.90;;;;;;5052114;28;20504;-79
2021/09/07 01:55:40;;;;;;;8.15;3.70;;;20.70;99.90;;;;;;5052139;28;20032;-80
2021/09/07 01:58:06;;;;;;;8.02;3.60;;;20.90;99.70;;;;;;5052076;28;20393;-80
2021/09/07 02:00:32;;;;;;;7.45;3.70;;;20.80;99.20;;;;;;5052271;28;20086;-79
2021/09/07 02:02:58;;;;;;;8.30;3.30;;;20.70;99.20;;;;;;5053699;28;20569;-80
2021/09/07 02:05:24;;;;;;;7.25;3.47;;;20.30;99.90;;;;;;5052965;28;20049;-80
2021/09/07 02:07:50;;;;;;;9.13;3.70;;;20.20;99.90;;;;;;5053234;28;20493;-79
2021/09/07 02:10:16;;;;;;;7.63;3.67;;;20.20;99.90;;;;;;5053087;28;20025;-79
2021/09/07 02:12:42;;;;;;;9.65;3.70;;;20.20;99.90;;;;;;5051916;28;20032;-80
2021/09/07 02:15:09;;;;;;;7.60;3.50;;;20.30;99.90;;;;;;5053179;28;20017;-80
2021/09/07 02:17:37;;;;;;;8.18;3.40;;;20.20;99.90;;;;;;5053109;28;20052;-80
2021/09/07 02:20:03;;;;;;;8.02;3.60;;;20.20;99.90;;;;;;5053164;28;20424;-80
2021/09/07 02:22:29;;;;;;;7.00;3.67;;;20.00;99.90;;;;;;5053098;28;20457;-80
2021/09/07 02:24:54;;;;;;;8.25;3.80;;;19.90;99.90;;;;;;5052924;28;20061;-80
2021/09/07 02:27:20;;;;;;;8.23;3.58;;;19.90;99.90;;;;;;5051731;28;20035;-79
2021/09/07 02:29:46;;;;;;;8.10;3.63;;;20.00;99.90;;;;;;5056313;28;20388;-80
2021/09/07 02:32:12;;;;;;;7.38;3.50;;;20.00;99.90;;;;;;5057248;28;20028;-79
2021/09/07 02:34:38;;;;;;;8.63;3.83;;;19.90;99.90;;;;;;5057618;28;20020;-80
2021/09/07 02:37:03;;;;;;;;;;;19.60;99.90;;;;;;5057929;28;20021;-80
2021/09/07 02:39:29;;;;;;;8.18;3.60;;;19.70;99.90;;;;;;5057075;28;19909;-79
2021/09/07 02:41:55;;;;;;;9.90;4.00;;;20.00;99.90;;;;;;5057497;28;20013;-80
2021/09/07 02:44:21;;;;;;;7.82;3.83;;;20.20;99.90;;;;;;5056991;28;20021;-80
2021/09/07 02:46:47;;;;;;;12.15;4.38;;;20.30;99.80;;;;;;5056866;28;20095;-79
2021/09/07 02:49:13;;;;;;;7.78;3.60;;;20.20;99.40;;;;;;5057013;28;20504;-80
2021/09/07 02:51:39;;;;;;;12.45;3.88;;;19.80;99.90;;;;;;5055552;28;20121;-79
2021/09/07 02:54:05;;;;;;;9.15;3.95;;;19.70;99.90;;;;;;5056735;28;20029;-79
2021/09/07 02:56:31;;;;;;;8.23;4.07;;;19.90;99.90;;;;;;5056786;28;20020;-80
2021/09/07 02:58:57;;;;;;;11.45;4.00;;;20.10;99.90;;;;;;5056607;28;20021;-79
2021/09/07 03:01:23;;;;;;;9.60;3.72;;;20.10;99.90;;;;;;5055314;28;20079;-79
2021/09/07 03:03:48;;;;;;;;;;;20.10;99.70;;;;;;5056704;28;20120;-80
2021/09/07 03:06:16;;;;;;;9.52;3.70;;;19.90;99.80;;;;;;5056560;28;20262;-79
2021/09/07 03:08:41;;;;;;;7.95;3.70;;;19.70;99.90;;;;;;5056455;28;20024;-80
2021/09/07 03:11:07;;;;;;;9.18;3.80;;;19.60;99.90;;;;;;5056862;28;20028;-80
2021/09/07 03:13:33;;;;;;;;;;;19.40;99.90;;;;;;5057239;28;20021;-79
2021/09/07 03:15:59;;;;;;;8.68;3.53;;;19.60;99.90;;;;;;5055116;28;19904;-79
2021/09/07 03:18:24;;;;;;;;;;;19.60;99.90;;;;;;5056866;28;20143;-79
2021/09/07 03:20:50;;;;;;;6.55;3.38;;;19.60;99.90;;;;;;5056276;28;20415;-80
2021/09/07 03:23:15;;;;;;;;;;;19.50;99.90;;;;;;5056735;28;20401;-80
2021/09/07 03:25:41;;;;;;;7.10;3.60;;;19.60;99.90;;;;;;5056173;28;20308;-80
2021/09/07 03:28:07;;;;;;;;;;;19.40;99.90;;;;;;5056748;28;20096;-80
2021/09/07 03:30:33;;;;;;;10.70;3.80;;;19.50;99.90;;;;;;5056091;28;20007;-80
2021/09/07 03:33:00;;;;;;;6.57;3.47;;;19.50;99.90;;;;;;5054696;28;20454;-80
2021/09/07 03:35:26;;;;;;;8.75;3.63;;;19.60;99.90;;;;;;5056027;28;20024;-79
2021/09/07 03:37:52;;;;;;;8.45;3.80;;;19.60;99.70;;;;;;5056056;28;20017;-79
2021/09/07 03:40:18;;;;;;;8.07;3.50;;;19.20;99.90;;;;;;5054932;28;20397;-80
2021/09/07 03:42:44;;;;;;;7.15;3.50;;;19.00;99.90;;;;;;5055789;28;20028;-80
2021/09/07 03:45:12;;;;;;;;;;;19.10;99.90;;;;;;5056530;28;20055;-79
2021/09/07 03:47:39;;;;;;;9.00;3.22;;;19.40;99.90;;;;;;5055880;28;19985;-80
2021/09/07 03:50:06;;;;;;;9.02;3.75;;;19.40;99.90;;;;;;5055590;28;20025;-79
2021/09/07 03:52:32;;;;;;;7.93;3.50;;;19.50;99.90;;;;;;5055662;28;20021;-79
2021/09/07 03:54:58;;;;;;;7.28;3.28;;;19.50;99.60;;;;;;5055631;28;20032;-79
2021/09/07 03:57:23;;;;;;;;;;;19.10;99.90;;;;;;5055943;28;20489;-80
2021/09/07 03:59:49;;;;;;;7.10;3.17;;;18.90;99.90;;;;;;5054540;28;19909;-80
2021/09/07 04:02:15;;;;;;;7.50;3.60;;;18.60;99.90;;;;;;5055556;28;20397;-79
2021/09/07 04:04:41;;;;;;;;;;;18.50;99.90;;;;;;5055642;28;20045;-79
2021/09/07 04:07:06;;;;;;;10.10;3.95;;;18.30;99.90;;;;;;5055423;28;19905;-80
2021/09/07 04:09:32;;;;;;;;;;;18.20;99.90;;;;;;5055743;28;20032;-79
2021/09/07 04:11:58;;;;;;;9.15;3.83;;;18.30;99.90;;;;;;5054000;28;19905;-80
2021/09/07 04:14:23;;;;;;;;;;;18.60;99.90;;;;;;5055692;28;20025;-80
2021/09/07 04:16:49;;;;;;;9.90;4.80;;;18.70;99.90;;;;;;5055205;28;20400;-79
2021/09/07 04:19:15;;;;;;;;;;;18.80;99.90;;;;;;5056021;28;20025;-80
2021/09/07 04:21:41;;;;;;;8.73;4.40;;;19.00;99.90;;;;;;5053857;28;19966;-80
2021/09/07 04:24:07;;;;;;;9.48;5.03;;;19.20;99.90;;;;;;5054963;28;20031;-80
2021/09/07 04:26:33;;;;;;;10.45;4.70;;;19.40;99.90;;;;;;5055103;28;20100;-80
2021/09/07 04:28:59;;;;;;;;;;;19.50;99.90;;;;;;5055393;28;20020;-79
2021/09/07 04:31:24;;;;;;;8.27;4.55;;;19.60;99.90;;;;;;5054916;28;20285;-79
2021/09/07 04:33:50;;;;;;;9.98;4.55;;;19.60;99.90;;;;;;5054855;28;20478;-80
2021/09/07 04:36:16;;;;;;;;;;;19.50;99.90;;;;;;5055375;28;20055;-79
2021/09/07 04:38:42;;;;;;;8.88;4.68;;;19.30;99.90;;;;;;5054777;28;19936;-79
2021/09/07 04:41:07;;;;;;;9.80;4.80;;;19.50;99.90;;;;;;5054805;28;20544;-79
2021/09/07 04:43:33;;;;;;;;;;;19.50;99.90;;;;;;5055120;28;20025;-79
2021/09/07 04:45:59;;;;;;;10.55;3.65;;;19.70;99.90;;;;;;5054662;28;19912;-80
2021/09/07 04:48:25;;;;;;;8.88;3.42;;;19.70;99.40;;;;;;5054638;28;20490;-79
2021/09/07 04:50:51;;;;;;;9.80;3.92;;;19.50;99.20;;;;;;5054392;28;20025;-80
2021/09/07 04:53:16;;;;;;;14.07;3.30;;;19.30;99.30;;;;;;5054501;28;20031;-80
2021/09/07 04:55:42;;;;;;;9.18;4.00;;;19.20;99.50;;;;;;5054522;28;20023;-79
2021/09/07 04:58:08;;;;;;;;;;;19.10;99.90;;;;;;5054836;28;20025;-80
2021/09/07 05:00:34;;;;;;;7.90;3.40;;;19.20;99.90;;;;;;5054382;28;19911;-79
2021/09/07 05:02:59;;;;;;;;;;;19.10;99.80;;;;;;5053527;28;20028;-80
2021/09/07 05:05:25;;;;;;;8.02;4.30;;;18.80;99.90;;;;;;5052570;28;20011;-80
2021/09/07 05:07:51;;;;;;;;;;;18.80;99.90;;;;;;5054662;28;20083;-79
2021/09/07 05:10:17;;;;;;;9.82;4.05;;;18.80;99.90;;;;;;5054428;28;19909;-79
2021/09/07 05:12:42;;;;;;;;;;;18.90;99.90;;;;;;5053279;28;20071;-79
2021/09/07 05:15:08;;;;;;;9.57;3.85;;;18.80;99.90;;;;;;5054106;28;19988;-79
2021/09/07 05:17:34;;;;;;;14.68;4.60;;;18.90;99.90;;;;;;5054037;28;20066;-80
2021/09/07 05:20:01;;;;;;;9.57;3.92;;;19.00;99.90;;;;;;5053995;28;20481;-80
2021/09/07 05:22:26;;;;;;;9.52;3.92;;;19.10;99.90;;;;;;5053841;28;20033;-79
2021/09/07 05:24:52;;;;;;;20.20;5.00;;;18.90;99.90;;;;;;5053942;28;20021;-79
2021/09/07 05:27:18;;;;;;;;;;;18.60;99.90;;;;;;5054348;28;20461;-80
2021/09/07 05:29:43;;;;;;;10.80;4.57;;;18.80;99.90;;;;;;5052462;28;19905;-80
2021/09/07 05:32:10;;;;;;;;;;;18.90;99.90;;;;;;5052911;28;20509;-79
2021/09/07 05:34:37;;;;;;;14.70;4.60;;;19.10;99.90;;;;;;5053749;28;19904;-79
2021/09/07 05:37:03;;;;;;;10.60;4.80;;;19.20;99.90;;;;;;5053834;28;20046;-80
2021/09/07 05:39:28;;;;;;;12.60;5.00;;;19.20;99.90;;;;;;5053701;28;20028;-80
2021/09/07 05:41:54;;;;;;;16.02;4.65;;;19.20;99.90;;;;;;5053709;28;20033;-80
2021/09/07 05:44:21;;;;;;;10.15;3.95;;;19.30;99.90;;;;;;5053582;28;20031;-80
2021/09/07 05:46:48;;;;;;;10.35;4.47;;;19.40;99.50;;;;;;5053563;28;20393;-79
2021/09/07 05:49:13;;;;;;;22.00;6.22;;;19.30;99.50;;;;;;5052178;28;20428;-80
2021/09/07 05:51:41;;;;;;;17.83;4.50;;;19.20;99.70;;;;;;5053401;28;20104;-79
2021/09/07 05:54:07;;;;;;;9.48;3.60;;;19.10;99.90;;;;;;5053443;28;20021;-79
2021/09/07 05:56:33;;;;;;;13.90;4.45;;;19.20;99.70;;;;;;5053420;28;20048;-80
2021/09/07 05:58:59;;;;;;;13.98;4.68;;;19.30;99.40;;;;;;5052045;28;20014;-79
2021/09/07 06:01:25;;;;;;;13.18;4.50;;;19.20;99.40;;;;;;5051976;28;20036;-79
2021/09/07 06:03:51;;;;;;;19.15;4.70;;;19.20;99.60;;;;;;5052547;28;20053;-79
2021/09/07 06:06:16;;;;;;;15.07;5.00;;;19.10;99.90;;;;;;5053563;28;20059;-79
2021/09/07 06:08:42;;;;;;;15.15;5.38;;;19.20;99.90;;;;;;5053578;28;20029;-79
2021/09/07 06:11:09;;;;;;;14.07;6.20;;;19.40;99.80;;;;;;5053192;28;20485;-80
2021/09/07 06:13:35;;;;;;;16.17;5.32;;;19.40;99.80;;;;;;5053155;28;20024;-80
2021/09/07 06:16:01;;;;;;;14.98;5.03;;;19.70;99.70;;;;;;5053137;28;20029;-80
2021/09/07 06:18:27;;;;;;;9.57;3.45;;;20.10;98.90;;;;;;5053094;28;20021;-80
2021/09/07 06:20:53;;;;;;;13.13;4.60;;;20.60;96.80;;;;;;5053082;28;20052;-80
2021/09/07 06:23:18;;;;;;;12.88;4.60;;;20.80;96.60;;;;;;5053268;28;20028;-79
2021/09/07 06:25:44;;;;;;;14.25;4.95;;;21.60;95.50;;;;;;5053184;28;20021;-81
2021/09/07 06:28:10;;;;;;;12.45;4.53;;;21.60;95.00;;;;;;5052997;28;20029;-80
2021/09/07 06:30:36;;;;;;;13.55;4.90;;;22.10;94.50;;;;;;5052972;28;20032;-80
2021/09/07 06:33:02;;;;;;;13.15;5.00;;;22.70;93.10;;;;;;5053357;28;20072;-80
2021/09/07 06:35:29;;;;;;;16.75;4.88;;;23.00;92.00;;;;;;5052951;28;20075;-80
2021/09/07 06:37:54;;;;;;;12.43;4.30;;;22.90;92.00;;;;;;5052919;28;20064;-80
2021/09/07 06:40:21;;;;;;;13.63;4.40;;;23.00;92.10;;;;;;5052923;28;20029;-80
2021/09/07 06:42:48;;;;;;;13.65;4.50;;;23.20;91.40;;;;;;5051572;28;20036;-80
2021/09/07 06:45:14;;;;;;;11.88;5.00;;;23.80;89.60;;;;;;5051595;28;20029;-81
2021/09/07 06:47:42;;;;;;;9.50;4.57;;;24.10;88.60;;;;;;5052848;28;20040;-81
2021/09/07 06:50:09;;;;;;;11.90;4.80;;;24.30;86.20;;;;;;5050775;28;20080;-80
2021/09/07 06:52:34;;;;;;;11.70;4.68;;;24.70;85.10;;;;;;5051537;28;20481;-80
2021/09/07 06:55:00;;;;;;;12.65;4.38;;;24.80;83.00;;;;;;5052746;28;20044;-79
2021/09/07 06:57:26;;;;;;;12.32;4.50;;;25.10;81.70;;;;;;5051506;28;20013;-81
2021/09/07 06:59:54;;;;;;;10.90;4.47;;;25.40;79.60;;;;;;5051503;28;20059;-81
2021/09/07 07:02:20;;;;;;;11.18;4.50;;;25.60;79.00;;;;;;5052706;28;20017;-80
2021/09/07 07:04:46;;;;;;;18.88;4.90;;;25.50;77.70;;;;;;5052783;28;20051;-80
2021/09/07 07:07:12;;;;;;;11.68;4.85;;;25.60;76.90;;;;;;5051423;28;20385;-80
2021/09/07 07:09:38;;;;;;;12.40;4.60;;;25.70;76.00;;;;;;5052664;28;20025;-80
2021/09/07 07:12:04;;;;;;;10.57;4.65;;;26.30;73.90;;;;;;5052620;28;20043;-80
2021/09/07 07:14:31;;;;;;;11.02;4.63;;;26.50;73.20;;;;;;5052647;28;20079;-81
2021/09/07 07:16:56;;;;;;;12.93;4.70;;;26.50;72.80;;;;;;5055916;28;20040;-80
2021/09/07 07:19:22;;;;;;;13.23;4.78;;;26.60;72.40;;;;;;5056313;28;20469;-80
2021/09/07 07:21:48;;;;;;;12.88;4.40;;;26.40;72.60;;;;;;5056229;28;20020;-80
2021/09/07 07:24:18;;;;;;;9.82;4.65;;;26.30;73.30;;;;;;5056161;28;20025;-81
2021/09/07 07:26:45;;;;;;;10.40;4.80;;;26.30;72.60;;;;;;5056361;28;20032;-80
2021/09/07 07:29:15;;;;;;;10.68;4.75;;;26.30;72.20;;;;;;5056099;28;20028;-80
2021/09/07 07:31:41;;;;;;;11.30;4.85;;;26.30;72.50;;;;;;5054483;28;20032;-80
2021/09/07 07:34:08;;;;;;;12.32;4.53;;;26.30;72.30;;;;;;5056016;28;20524;-79
2021/09/07 07:36:34;;;;;;;20.10;5.20;;;26.20;72.80;;;;;;5055977;28;20096;-80
2021/09/07 07:39:03;;;;;;;14.38;4.80;;;26.50;71.50;;;;;;5054635;28;20064;-79
2021/09/07 07:41:29;;;;;;;12.93;4.60;;;26.80;71.60;;;;;;5055885;28;20474;-80
2021/09/07 07:43:55;;;;;;;13.07;5.13;;;27.40;69.00;;;;;;5055849;28;20035;-80
2021/09/07 07:46:21;;;;;;;15.82;4.53;;;27.80;68.80;;;;;;5055828;28;20428;-80
2021/09/07 07:48:47;;;;;;;13.85;4.63;;;28.50;66.60;;;;;;5054454;28;20075;-81
2021/09/07 07:51:13;;;;;;;8.88;4.40;;;28.90;64.50;;;;;;5055752;28;20033;-81
2021/09/07 07:53:40;;;;;;;16.55;4.80;;;29.40;62.90;;;;;;5054437;28;20021;-80
2021/09/07 07:56:06;;;;;;;12.57;4.50;;;29.60;61.60;;;;;;5055630;28;20442;-81
2021/09/07 07:58:32;;;;;;;9.73;4.65;;;30.10;61.10;;;;;;5054342;28;20017;-81
2021/09/07 08:00:58;;;;;;;11.13;4.28;;;30.60;59.10;;;;;;5055541;28;20421;-80
2021/09/07 08:03:24;;;;;;;10.52;4.30;;;31.10;58.80;;;;;;5054067;28;20059;-81
2021/09/07 08:05:50;;;;;;;8.63;4.45;;;31.70;57.90;;;;;;5054115;28;20451;-81
2021/09/07 08:08:16;;;;;;;10.38;4.43;;;32.20;56.20;;;;;;5055408;28;20017;-81
2021/09/07 08:10:42;;;;;;;10.55;4.72;;;32.40;55.70;;;;;;5055289;28;20167;-80
2021/09/07 08:13:08;;;;;;;9.68;4.35;;;32.80;55.10;;;;;;5054000;28;20020;-80
2021/09/07 08:15:34;;;;;;;9.32;3.97;;;32.90;53.50;;;;;;5053967;28;20036;-81
2021/09/07 08:18:00;;;;;;;13.65;4.45;;;33.00;53.00;;;;;;5053898;28;20053;-81
2021/09/07 08:20:30;;;;;;;10.73;4.50;;;33.50;52.80;;;;;;5053855;28;20063;-81
2021/09/07 08:22:56;;;;;;;10.07;4.40;;;33.70;52.70;;;;;;5053850;28;20021;-81
2021/09/07 08:25:22;;;;;;;12.93;4.40;;;34.10;50.90;;;;;;5055025;28;20028;-80
2021/09/07 08:27:48;;;;;;;13.63;4.60;;;33.70;51.60;;;;;;5053323;28;20017;-81
2021/09/07 08:30:15;;;;;;;12.02;4.70;;;34.00;51.00;;;;;;5053805;28;20032;-81
2021/09/07 08:32:42;;;;;;;10.45;4.20;;;34.50;50.40;;;;;;5054907;28;20013;-81
2021/09/07 08:35:10;;;;;;;9.90;4.18;;;34.50;49.40;;;;;;5055095;28;20021;-81
2021/09/07 08:37:36;;;;;;;10.52;4.53;;;34.80;49.40;;;;;;5055076;28;20025;-80
2021/09/07 08:40:05;;;;;;;13.60;4.35;;;34.80;49.00;;;;;;5055043;28;20481;-82
2021/09/07 08:42:33;;;;;;;10.18;4.10;;;35.00;47.90;;;;;;5053465;28;20024;-81
2021/09/07 08:45:00;;;;;;;10.25;4.30;;;35.00;49.40;;;;;;5054719;28;20442;-80
2021/09/07 08:47:26;;;;;;;13.85;4.57;;;35.10;49.00;;;;;;5054846;28;20021;-80
2021/09/07 08:49:52;;;;;;;11.25;4.40;;;35.70;48.10;;;;;;5054526;28;20028;-81
2021/09/07 08:52:22;;;;;;;11.93;4.53;;;36.50;46.40;;;;;;5054634;28;20148;-81
2021/09/07 08:54:47;;;;;;;12.60;4.50;;;36.70;45.90;;;;;;5053190;28;20025;-80
2021/09/07 08:57:13;;;;;;;14.07;4.93;;;37.30;44.80;;;;;;5053215;28;20024;-80
2021/09/07 08:59:39;;;;;;;10.25;4.30;;;37.40;44.90;;;;;;5054453;28;20100;-81
2021/09/07 09:02:19;;;;;;;12.77;4.50;;;37.80;44.60;;;;;;5054389;28;20023;-80
2021/09/07 09:04:47;;;;;;;9.95;4.78;;;37.90;44.00;;;;;;5052788;28;20098;-81
2021/09/07 09:07:22;;;;;;;10.00;4.32;;;38.30;43.30;;;;;;5052980;28;20044;-81
2021/09/07 09:09:50;;;;;;;14.70;4.70;;;38.20;43.70;;;;;;5054270;28;20029;-81
2021/09/07 09:12:17;;;;;;;15.10;4.63;;;39.10;42.70;;;;;;5054172;28;20071;-81
2021/09/07 09:14:46;;;;;;;10.98;4.78;;;39.00;42.20;;;;;;5052829;28;20490;-81
2021/09/07 09:17:17;;;;;;;11.57;4.10;;;38.60;42.30;;;;;;5052833;28;20031;-80
2021/09/07 09:20:04;;;;;;;10.43;4.20;;;38.50;42.20;;;;;;5054039;28;20075;-81
2021/09/07 09:22:40;;;;;;;9.88;4.50;;;38.30;42.80;;;;;;5054253;28;20060;-81
2021/09/07 09:25:40;;;;;;;10.65;4.55;;;39.20;42.90;;;;;;5054066;28;20028;-81
2021/09/07 09:28:11;;;;;;;12.90;5.00;;;39.90;41.60;;;;;;5053884;28;20025;-81
2021/09/07 09:30:46;;;;;;;13.88;5.07;;;41.20;42.00;;;;;;5052609;28;20389;-81
2021/09/07 09:33:16;;;;;;;10.30;4.90;;;41.60;39.90;;;;;;5052545;28;20024;-82
2021/09/07 09:35:49;;;;;;;17.05;5.45;;;42.50;40.00;;;;;;5052468;28;20021;-81
2021/09/07 09:38:15;;;;;;;11.38;4.53;;;42.80;38.50;;;;;;5051612;28;20470;-82
2021/09/07 09:40:41;;;;;;;14.20;4.82;;;41.70;39.00;;;;;;5052274;28;20021;-82
2021/09/07 09:43:27;;;;;;;10.13;5.30;;;42.40;38.80;;;;;;5053921;28;20079;-82
2021/09/07 09:45:54;;;;;;;9.85;4.47;;;43.60;38.20;;;;;;5053699;28;20021;-81
2021/09/07 09:48:28;;;;;;;12.05;4.00;;;41.60;38.30;;;;;;5053912;28;20021;-81
2021/09/07 09:50:57;;;;;;;16.27;4.20;;;40.30;39.10;;;;;;5053576;28;20029;-81
2021/09/07 09:53:24;;;;;;;9.70;3.47;;;37.60;41.30;;;;;;5053502;28;20033;-80
2021/09/07 09:55:51;;;;;;;12.45;3.90;;;36.20;42.50;;;;;;5053498;28;20028;-80
2021/09/07 09:58:18;;;;;;;18.42;3.92;;;35.40;43.20;;;;;;5052152;28;20032;-81
2021/09/07 10:00:46;;;;;;;12.82;3.70;;;34.90;43.20;;;;;;5051057;28;20021;-81
2021/09/07 10:03:13;;;;;;;10.25;3.45;;;35.10;44.10;;;;;;5053212;28;20389;-81
2021/09/07 10:05:40;;;;;;;18.67;4.30;;;35.60;43.70;;;;;;5053044;28;20045;-81
2021/09/07 10:08:08;;;;;;;13.38;4.00;;;35.60;42.90;;;;;;5053254;28;20355;-80
2021/09/07 10:10:35;;;;;;;15.55;4.00;;;36.60;42.60;;;;;;5051936;28;20115;-81
2021/09/07 10:13:03;;;;;;;11.60;3.70;;;37.40;41.00;;;;;;5051889;28;20036;-81
2021/09/07 10:15:37;;;;;;;16.08;3.75;;;37.70;41.40;;;;;;5053168;28;20397;-81
2021/09/07 10:23:57;;;;;;;12.10;3.75;;;39.20;40.00;;;;;;5053393;28;20032;-81
2021/09/07 10:26:38;;;;;;;10.05;3.50;;;39.90;38.80;;;;;;5053136;28;20453;-81
2021/09/07 10:29:11;;;;;;;13.95;3.80;;;39.60;39.10;;;;;;5051805;28;20028;-81
2021/09/07 10:31:49;;;;;;;12.50;3.47;;;39.30;39.10;;;;;;5053257;28;20402;-81
2021/09/07 10:34:16;;;;;;;11.55;3.50;;;38.50;39.80;;;;;;5053018;28;20025;-81
2021/09/07 10:37:04;;;;;;;12.45;3.60;;;38.80;40.00;;;;;;5052232;28;20055;-81
2021/09/07 10:39:36;;;;;;;13.07;4.20;;;40.60;39.60;;;;;;5053389;28;20028;-82
2021/09/07 10:42:11;;;;;;;11.25;4.15;;;41.70;38.60;;;;;;5051569;28;20017;-82
2021/09/07 10:44:42;;;;;;;9.00;4.22;;;42.30;38.00;;;;;;5052975;28;20031;-82
2021/09/07 10:47:16;;;;;;;13.45;4.50;;;43.50;37.50;;;;;;5051402;28;20021;-82
2021/09/07 10:49:44;;;;;;;16.48;5.03;;;43.80;36.50;;;;;;5052884;28;20029;-82
2021/09/07 10:52:23;;;;;;;18.90;4.97;;;45.40;35.70;;;;;;5056972;28;20108;-82
2021/09/07 10:55:04;;;;;;;21.38;4.88;;;45.50;35.80;;;;;;5056855;28;20151;-82
2021/09/07 10:57:32;;;;;;;13.38;4.60;;;44.80;35.40;;;;;;5057087;28;20099;-82
2021/09/07 11:00:01;;;;;;;16.40;4.53;;;43.60;36.30;;;;;;5056664;28;20021;-81
2021/09/07 11:02:37;;;;;;;12.05;4.45;;;43.20;36.70;;;;;;5055424;28;20021;-82
2021/09/07 11:05:04;;;;;;;18.33;4.38;;;43.30;36.80;;;;;;5055018;28;20524;-81
2021/09/07 11:07:45;;;;;;;15.90;4.22;;;43.10;36.50;;;;;;5056530;28;20435;-81
2021/09/07 11:10:16;;;;;;;14.05;4.40;;;42.70;36.70;;;;;;5056708;28;20029;-81
2021/09/07 11:12:53;;;;;;;13.27;4.30;;;43.40;36.80;;;;;;5056485;28;20025;-83
2021/09/07 11:15:32;;;;;;;16.67;4.50;;;43.10;36.90;;;;;;5055161;28;20029;-82
2021/09/07 11:18:00;;;;;;;10.18;3.55;;;42.60;36.40;;;;;;5054830;28;20401;-83
2021/09/07 11:20:40;;;;;;;20.60;4.10;;;42.70;36.40;;;;;;5056192;28;20486;-83
2021/09/07 11:23:15;;;;;;;11.80;3.65;;;42.60;35.90;;;;;;5056584;28;20029;-82
2021/09/07 11:25:45;;;;;;;8.10;3.70;;;41.90;37.20;;;;;;5054902;28;20163;-83
2021/09/07 11:28:13;;;;;;;10.45;3.75;;;42.90;36.50;;;;;;5056193;28;20033;-82
2021/09/07 11:30:52;;;;;;;10.70;4.03;;;43.40;37.00;;;;;;5056097;28;20017;-83
2021/09/07 11:33:19;;;;;;;11.30;4.43;;;44.90;35.50;;;;;;5056290;28;20025;-83
2021/09/07 11:35:52;;;;;;;15.02;3.95;;;44.50;35.10;;;;;;5056165;28;20017;-83
2021/09/07 11:38:21;;;;;;;11.68;4.05;;;44.30;35.40;;;;;;5056133;28;20044;-84
2021/09/07 11:40:48;;;;;;;8.57;3.78;;;44.10;36.00;;;;;;5055882;28;20096;-83
2021/09/07 11:43:25;;;;;;;14.98;3.78;;;44.10;35.40;;;;;;5055936;28;20024;-84
2021/09/07 11:46:15;;;;;;;10.73;4.30;;;43.70;36.00;;;;;;5054282;28;20017;-82
2021/09/07 11:48:43;;;;;;;12.52;4.35;;;44.00;35.80;;;;;;5055857;28;20066;-82
2021/09/07 11:51:11;;;;;;;11.82;4.03;;;45.10;35.80;;;;;;5055772;28;20017;-83
2021/09/07 11:53:37;;;;;;;20.65;4.20;;;45.20;35.50;;;;;;5054471;28;20585;-84
2021/09/07 11:56:04;;;;;;;16.80;4.20;;;43.60;35.80;;;;;;5054332;28;20108;-83
2021/09/07 11:58:34;;;;;;;11.88;4.00;;;43.20;36.50;;;;;;5054528;28;20055;-82
2021/09/07 12:01:12;;;;;;;14.23;4.43;;;44.00;36.80;;;;;;5054904;28;20123;-82
2021/09/07 12:03:44;;;;;;;10.80;4.60;;;44.80;35.90;;;;;;5055534;28;20035;-82
2021/09/07 12:06:12;;;;;;;12.10;4.70;;;46.10;35.20;;;;;;5055749;28;20504;-82
2021/09/07 12:08:46;;;;;;;12.98;4.60;;;46.40;35.10;;;;;;5055437;28;20031;-83
2021/09/07 12:11:32;;;;;;;13.55;4.40;;;46.70;34.40;;;;;;5055366;28;20489;-83
2021/09/07 12:14:06;;;;;;;12.65;4.32;;;46.00;35.00;;;;;;5055396;28;20119;-81
2021/09/07 12:16:36;;;;;;;11.25;4.25;;;46.20;35.20;;;;;;5055558;28;20104;-84
2021/09/07 12:19:34;;;;;;;11.35;4.30;;;45.80;35.10;;;;;;5055241;28;20489;-83
2021/09/07 12:22:20;;;;;;;11.70;4.65;;;46.00;35.10;;;;;;5053785;28;20513;-82
2021/09/07 12:25:17;;;;;;;17.83;4.97;;;45.70;35.70;;;;;;5055170;28;20449;-82
2021/09/07 12:27:57;;;;;;;15.43;4.57;;;46.50;35.70;;;;;;5053808;28;20507;-81
2021/09/07 12:30:28;;;;;;;12.75;4.22;;;45.70;35.60;;;;;;5055337;28;20025;-81
2021/09/07 12:32:57;;;;;;;15.15;4.40;;;46.00;35.30;;;;;;5053692;28;20432;-81
2021/09/07 12:35:42;;;;;;;10.80;4.70;;;46.80;35.20;;;;;;5054979;28;20543;-81
2021/09/07 12:38:13;;;;;;;10.65;4.68;;;47.10;34.70;;;;;;5053893;28;20140;-81
2021/09/07 12:40:43;;;;;;;9.65;4.63;;;47.50;34.50;;;;;;5054714;28;20021;-82
2021/09/07 12:43:11;;;;;;;12.98;4.95;;;47.80;34.10;;;;;;5053506;28;20036;-81
2021/09/07 12:45:37;;;;;;;10.57;4.65;;;47.80;34.50;;;;;;5054795;28;20025;-81
2021/09/07 12:48:03;;;;;;;19.17;4.70;;;47.50;34.30;;;;;;5054704;28;20021;-81
2021/09/07 12:50:30;;;;;;;14.15;4.50;;;47.90;34.30;;;;;;5054618;28;20108;-80
2021/09/07 12:52:56;;;;;;;12.68;4.72;;;47.60;34.50;;;;;;5054626;28;20021;-81
2021/09/07 12:55:22;;;;;;;13.00;4.50;;;48.50;33.90;;;;;;5053213;28;20400;-81